sensor_id;sensor_type;location;lat;lon;timestamp;P1;durP1;ratioP1;P2;durP2;ratioP2
77513;SDS011;66626;48.872;9.084;2023-04-28T00:01:36;8.73;;;4.18;;
77513;SDS011;66626;48.872;9.084;2023-04-28T00:04:01;8.25;;;4.10;;
77513;SDS011;66626;48.872;9.084;2023-04-28T00:06:27;8.20;;;4.30;;
77513;SDS011;66626;48.872;9.084;2023-04-28T00:08:54;9.15;;;4.05;;
77513;SDS011;66626;48.872;9.084;2023-04-28T00:11:20;8.00;;;4.07;;
77513;SDS011;66626;48.872;9.084;2023-04-28T00:13:45;14.27;;;4.32;;
77513;SDS011;66626;48.872;9.084;2023-04-28T00:16:10;9.82;;;4.05;;
77513;SDS011;66626;48.872;9.084;2023-04-28T00:18:36;9.32;;;4.55;;
77513;SDS011;66626;48.872;9.084;2023-04-28T00:21:01;6.43;;;3.88;;
77513;SDS011;66626;48.872;9.084;2023-04-28T00:23:26;9.48;;;4.97;;
77513;SDS011;66626;48.872;9.084;2023-04-28T00:25:52;8.60;;;5.05;;
77513;SDS011;66626;48.872;9.084;2023-04-28T00:28:18;11.48;;;5.30;;
77513;SDS011;66626;48.872;9.084;2023-04-28T00:30:43;9.55;;;5.38;;
77513;SDS011;66626;48.872;9.084;2023-04-28T00:33:09;12.88;;;4.53;;
77513;SDS011;66626;48.872;9.084;2023-04-28T00:35:34;8.93;;;4.97;;
77513;SDS011;66626;48.872;9.084;2023-04-28T00:37:59;8.32;;;4.90;;
77513;SDS011;66626;48.872;9.084;2023-04-28T00:40:34;9.32;;;5.68;;
77513;SDS011;66626;48.872;9.084;2023-04-28T00:43:00;9.55;;;5.07;;
77513;SDS011;66626;48.872;9.084;2023-04-28T00:45:26;10.57;;;4.78;;
77513;SDS011;66626;48.872;9.084;2023-04-28T00:47:51;10.80;;;4.32;;
77513;SDS011;66626;48.872;9.084;2023-04-28T00:50:17;6.65;;;3.80;;
77513;SDS011;66626;48.872;9.084;2023-04-28T00:52:45;8.23;;;3.65;;
77513;SDS011;66626;48.872;9.084;2023-04-28T00:55:11;10.98;;;3.83;;
77513;SDS011;66626;48.872;9.084;2023-04-28T00:57:39;6.88;;;3.28;;
77513;SDS011;66626;48.872;9.084;2023-04-28T01:00:04;8.70;;;4.05;;
77513;SDS011;66626;48.872;9.084;2023-04-28T01:02:30;8.25;;;4.00;;
77513;SDS011;66626;48.872;9.084;2023-04-28T01:04:56;7.72;;;3.85;;
77513;SDS011;66626;48.872;9.084;2023-04-28T01:07:22;9.15;;;4.20;;
77513;SDS011;66626;48.872;9.084;2023-04-28T01:09:47;9.57;;;4.45;;
77513;SDS011;66626;48.872;9.084;2023-04-28T01:12:12;10.27;;;4.75;;
77513;SDS011;66626;48.872;9.084;2023-04-28T01:14:38;6.38;;;3.70;;
77513;SDS011;66626;48.872;9.084;2023-04-28T01:17:03;8.45;;;3.60;;
77513;SDS011;66626;48.872;9.084;2023-04-28T01:19:29;6.57;;;3.75;;
77513;SDS011;66626;48.872;9.084;2023-04-28T01:21:54;6.22;;;3.20;;
77513;SDS011;66626;48.872;9.084;2023-04-28T01:24:20;13.30;;;4.25;;
77513;SDS011;66626;48.872;9.084;2023-04-28T01:26:45;6.93;;;3.78;;
77513;SDS011;66626;48.872;9.084;2023-04-28T01:29:11;6.93;;;3.63;;
77513;SDS011;66626;48.872;9.084;2023-04-28T01:31:36;8.63;;;3.65;;
77513;SDS011;66626;48.872;9.084;2023-04-28T01:34:02;8.60;;;3.88;;
77513;SDS011;66626;48.872;9.084;2023-04-28T01:36:27;7.60;;;3.78;;
77513;SDS011;66626;48.872;9.084;2023-04-28T01:38:53;10.75;;;4.43;;
77513;SDS011;66626;48.872;9.084;2023-04-28T01:41:19;8.68;;;3.83;;
77513;SDS011;66626;48.872;9.084;2023-04-28T01:43:44;8.15;;;3.38;;
77513;SDS011;66626;48.872;9.084;2023-04-28T01:46:09;6.13;;;3.55;;
77513;SDS011;66626;48.872;9.084;2023-04-28T01:48:35;10.43;;;4.10;;
77513;SDS011;66626;48.872;9.084;2023-04-28T01:51:00;6.35;;;3.40;;
77513;SDS011;66626;48.872;9.084;2023-04-28T01:53:26;9.02;;;3.70;;
77513;SDS011;66626;48.872;9.084;2023-04-28T01:55:51;10.75;;;4.88;;
77513;SDS011;66626;48.872;9.084;2023-04-28T01:58:17;9.57;;;5.30;;
77513;SDS011;66626;48.872;9.084;2023-04-28T02:00:42;10.65;;;5.70;;
77513;SDS011;66626;48.872;9.084;2023-04-28T02:03:08;12.75;;;6.05;;
77513;SDS011;66626;48.872;9.084;2023-04-28T02:05:33;8.88;;;5.50;;
77513;SDS011;66626;48.872;9.084;2023-04-28T02:07:58;11.68;;;4.93;;
77513;SDS011;66626;48.872;9.084;2023-04-28T02:10:23;8.93;;;5.20;;
77513;SDS011;66626;48.872;9.084;2023-04-28T02:12:49;9.23;;;4.75;;
77513;SDS011;66626;48.872;9.084;2023-04-28T02:15:14;8.02;;;4.82;;
77513;SDS011;66626;48.872;9.084;2023-04-28T02:17:40;11.88;;;4.65;;
77513;SDS011;66626;48.872;9.084;2023-04-28T02:20:06;10.55;;;4.45;;
77513;SDS011;66626;48.872;9.084;2023-04-28T02:22:32;8.90;;;3.75;;
77513;SDS011;66626;48.872;9.084;2023-04-28T02:24:57;9.57;;;4.53;;
77513;SDS011;66626;48.872;9.084;2023-04-28T02:27:22;6.60;;;3.50;;
77513;SDS011;66626;48.872;9.084;2023-04-28T02:29:48;10.90;;;4.25;;
77513;SDS011;66626;48.872;9.084;2023-04-28T02:32:13;8.48;;;4.80;;
77513;SDS011;66626;48.872;9.084;2023-04-28T02:34:38;14.52;;;4.55;;
77513;SDS011;66626;48.872;9.084;2023-04-28T02:37:04;7.65;;;4.32;;
77513;SDS011;66626;48.872;9.084;2023-04-28T02:39:29;9.02;;;4.93;;
77513;SDS011;66626;48.872;9.084;2023-04-28T02:41:56;9.88;;;4.15;;
77513;SDS011;66626;48.872;9.084;2023-04-28T02:44:22;9.57;;;3.92;;
77513;SDS011;66626;48.872;9.084;2023-04-28T02:46:47;9.60;;;4.65;;
77513;SDS011;66626;48.872;9.084;2023-04-28T02:49:12;8.50;;;5.20;;
77513;SDS011;66626;48.872;9.084;2023-04-28T02:51:38;9.05;;;5.20;;
77513;SDS011;66626;48.872;9.084;2023-04-28T02:54:03;8.70;;;4.88;;
77513;SDS011;66626;48.872;9.084;2023-04-28T02:56:29;7.78;;;4.82;;
77513;SDS011;66626;48.872;9.084;2023-04-28T02:58:54;14.23;;;5.88;;
77513;SDS011;66626;48.872;9.084;2023-04-28T03:01:20;9.15;;;4.60;;
77513;SDS011;66626;48.872;9.084;2023-04-28T03:03:45;10.20;;;5.07;;
77513;SDS011;66626;48.872;9.084;2023-04-28T03:06:10;8.45;;;4.25;;
77513;SDS011;66626;48.872;9.084;2023-04-28T03:08:36;11.82;;;4.82;;
77513;SDS011;66626;48.872;9.084;2023-04-28T03:11:01;9.73;;;4.97;;
77513;SDS011;66626;48.872;9.084;2023-04-28T03:13:27;7.95;;;4.90;;
77513;SDS011;66626;48.872;9.084;2023-04-28T03:15:53;11.73;;;4.90;;
77513;SDS011;66626;48.872;9.084;2023-04-28T03:18:19;7.50;;;4.50;;
77513;SDS011;66626;48.872;9.084;2023-04-28T03:20:44;17.58;;;5.15;;
77513;SDS011;66626;48.872;9.084;2023-04-28T03:23:10;8.60;;;4.53;;
77513;SDS011;66626;48.872;9.084;2023-04-28T03:25:35;7.95;;;3.97;;
77513;SDS011;66626;48.872;9.084;2023-04-28T03:28:00;9.45;;;4.55;;
77513;SDS011;66626;48.872;9.084;2023-04-28T03:30:26;12.05;;;4.10;;
77513;SDS011;66626;48.872;9.084;2023-04-28T03:32:52;8.90;;;4.63;;
77513;SDS011;66626;48.872;9.084;2023-04-28T03:35:17;10.38;;;5.95;;
77513;SDS011;66626;48.872;9.084;2023-04-28T03:37:42;9.00;;;4.90;;
77513;SDS011;66626;48.872;9.084;2023-04-28T03:40:08;8.75;;;5.10;;
77513;SDS011;66626;48.872;9.084;2023-04-28T03:42:34;11.85;;;5.80;;
77513;SDS011;66626;48.872;9.084;2023-04-28T03:44:59;10.60;;;5.30;;
77513;SDS011;66626;48.872;9.084;2023-04-28T03:47:25;7.82;;;4.40;;
77513;SDS011;66626;48.872;9.084;2023-04-28T03:49:50;12.85;;;5.00;;
77513;SDS011;66626;48.872;9.084;2023-04-28T03:52:16;8.75;;;5.32;;
77513;SDS011;66626;48.872;9.084;2023-04-28T03:54:41;11.60;;;4.60;;
77513;SDS011;66626;48.872;9.084;2023-04-28T03:57:06;10.23;;;4.85;;
77513;SDS011;66626;48.872;9.084;2023-04-28T03:59:32;9.15;;;4.10;;
77513;SDS011;66626;48.872;9.084;2023-04-28T04:01:57;9.65;;;5.55;;
77513;SDS011;66626;48.872;9.084;2023-04-28T04:04:22;8.57;;;5.20;;
77513;SDS011;66626;48.872;9.084;2023-04-28T04:06:47;10.25;;;4.80;;
77513;SDS011;66626;48.872;9.084;2023-04-28T04:09:13;11.80;;;5.10;;
77513;SDS011;66626;48.872;9.084;2023-04-28T04:11:39;10.13;;;4.80;;
77513;SDS011;66626;48.872;9.084;2023-04-28T04:14:04;8.55;;;4.60;;
77513;SDS011;66626;48.872;9.084;2023-04-28T04:16:30;9.57;;;4.82;;
77513;SDS011;66626;48.872;9.084;2023-04-28T04:18:55;8.48;;;4.28;;
77513;SDS011;66626;48.872;9.084;2023-04-28T04:21:21;9.50;;;4.72;;
77513;SDS011;66626;48.872;9.084;2023-04-28T04:23:46;14.52;;;7.97;;
77513;SDS011;66626;48.872;9.084;2023-04-28T04:26:11;9.25;;;5.35;;
77513;SDS011;66626;48.872;9.084;2023-04-28T04:28:37;11.25;;;4.80;;
77513;SDS011;66626;48.872;9.084;2023-04-28T04:31:02;11.15;;;4.93;;
77513;SDS011;66626;48.872;9.084;2023-04-28T04:33:28;8.65;;;5.18;;
77513;SDS011;66626;48.872;9.084;2023-04-28T04:35:53;9.23;;;4.53;;
77513;SDS011;66626;48.872;9.084;2023-04-28T04:38:18;11.25;;;4.65;;
77513;SDS011;66626;48.872;9.084;2023-04-28T04:40:44;9.40;;;5.10;;
77513;SDS011;66626;48.872;9.084;2023-04-28T04:43:09;10.00;;;4.22;;
77513;SDS011;66626;48.872;9.084;2023-04-28T04:45:34;8.60;;;4.22;;
77513;SDS011;66626;48.872;9.084;2023-04-28T04:48:00;12.45;;;5.20;;
77513;SDS011;66626;48.872;9.084;2023-04-28T04:50:26;8.80;;;4.82;;
77513;SDS011;66626;48.872;9.084;2023-04-28T04:52:51;7.47;;;4.57;;
77513;SDS011;66626;48.872;9.084;2023-04-28T04:55:18;8.38;;;4.70;;
77513;SDS011;66626;48.872;9.084;2023-04-28T04:57:43;9.05;;;5.00;;
77513;SDS011;66626;48.872;9.084;2023-04-28T05:00:09;11.65;;;5.00;;
77513;SDS011;66626;48.872;9.084;2023-04-28T05:02:35;9.10;;;4.75;;
77513;SDS011;66626;48.872;9.084;2023-04-28T05:05:00;9.52;;;4.53;;
77513;SDS011;66626;48.872;9.084;2023-04-28T05:07:25;8.88;;;4.47;;
77513;SDS011;66626;48.872;9.084;2023-04-28T05:09:51;9.50;;;3.55;;
77513;SDS011;66626;48.872;9.084;2023-04-28T05:12:16;7.90;;;3.65;;
77513;SDS011;66626;48.872;9.084;2023-04-28T05:14:41;11.60;;;4.43;;
77513;SDS011;66626;48.872;9.084;2023-04-28T05:17:07;9.63;;;4.40;;
77513;SDS011;66626;48.872;9.084;2023-04-28T05:19:32;11.68;;;5.10;;
77513;SDS011;66626;48.872;9.084;2023-04-28T05:21:57;7.03;;;4.22;;
77513;SDS011;66626;48.872;9.084;2023-04-28T05:24:24;6.43;;;4.22;;
77513;SDS011;66626;48.872;9.084;2023-04-28T05:26:50;8.27;;;3.83;;
77513;SDS011;66626;48.872;9.084;2023-04-28T05:29:16;6.50;;;3.55;;
77513;SDS011;66626;48.872;9.084;2023-04-28T05:31:41;9.65;;;4.97;;
77513;SDS011;66626;48.872;9.084;2023-04-28T05:34:06;9.10;;;3.90;;
77513;SDS011;66626;48.872;9.084;2023-04-28T05:36:32;6.63;;;3.63;;
77513;SDS011;66626;48.872;9.084;2023-04-28T05:38:57;8.10;;;3.67;;
77513;SDS011;66626;48.872;9.084;2023-04-28T05:41:22;7.80;;;3.72;;
77513;SDS011;66626;48.872;9.084;2023-04-28T05:43:48;5.30;;;2.80;;
77513;SDS011;66626;48.872;9.084;2023-04-28T05:46:15;11.55;;;3.90;;
77513;SDS011;66626;48.872;9.084;2023-04-28T05:48:41;9.00;;;4.60;;
77513;SDS011;66626;48.872;9.084;2023-04-28T05:51:06;7.93;;;3.58;;
77513;SDS011;66626;48.872;9.084;2023-04-28T05:53:31;7.25;;;3.65;;
77513;SDS011;66626;48.872;9.084;2023-04-28T05:55:57;7.10;;;3.80;;
77513;SDS011;66626;48.872;9.084;2023-04-28T05:58:22;5.47;;;3.08;;
77513;SDS011;66626;48.872;9.084;2023-04-28T06:00:47;7.63;;;3.25;;
77513;SDS011;66626;48.872;9.084;2023-04-28T06:03:13;6.75;;;3.20;;
77513;SDS011;66626;48.872;9.084;2023-04-28T06:05:39;5.03;;;3.15;;
77513;SDS011;66626;48.872;9.084;2023-04-28T06:08:04;7.22;;;3.05;;
77513;SDS011;66626;48.872;9.084;2023-04-28T06:10:31;6.70;;;3.30;;
77513;SDS011;66626;48.872;9.084;2023-04-28T06:12:57;6.28;;;3.60;;
77513;SDS011;66626;48.872;9.084;2023-04-28T06:15:22;7.13;;;3.25;;
77513;SDS011;66626;48.872;9.084;2023-04-28T06:17:47;10.93;;;4.25;;
77513;SDS011;66626;48.872;9.084;2023-04-28T06:20:12;7.80;;;3.33;;
77513;SDS011;66626;48.872;9.084;2023-04-28T06:22:38;7.78;;;3.28;;
77513;SDS011;66626;48.872;9.084;2023-04-28T06:25:05;8.98;;;4.00;;
77513;SDS011;66626;48.872;9.084;2023-04-28T06:27:30;7.38;;;3.25;;
77513;SDS011;66626;48.872;9.084;2023-04-28T06:29:56;5.93;;;2.58;;
77513;SDS011;66626;48.872;9.084;2023-04-28T06:32:22;8.15;;;3.15;;
77513;SDS011;66626;48.872;9.084;2023-04-28T06:34:47;6.10;;;3.03;;
77513;SDS011;66626;48.872;9.084;2023-04-28T06:37:13;7.40;;;3.38;;
77513;SDS011;66626;48.872;9.084;2023-04-28T06:39:38;6.25;;;3.33;;
77513;SDS011;66626;48.872;9.084;2023-04-28T06:42:03;6.82;;;3.55;;
77513;SDS011;66626;48.872;9.084;2023-04-28T06:44:29;5.55;;;3.25;;
77513;SDS011;66626;48.872;9.084;2023-04-28T06:46:54;5.80;;;3.15;;
77513;SDS011;66626;48.872;9.084;2023-04-28T06:49:20;6.32;;;3.53;;
77513;SDS011;66626;48.872;9.084;2023-04-28T06:51:45;8.10;;;3.50;;
77513;SDS011;66626;48.872;9.084;2023-04-28T06:54:11;7.25;;;3.75;;
77513;SDS011;66626;48.872;9.084;2023-04-28T06:56:36;6.68;;;3.50;;
77513;SDS011;66626;48.872;9.084;2023-04-28T06:59:01;6.03;;;3.38;;
77513;SDS011;66626;48.872;9.084;2023-04-28T07:01:27;7.05;;;3.58;;
77513;SDS011;66626;48.872;9.084;2023-04-28T07:03:52;8.80;;;3.63;;
77513;SDS011;66626;48.872;9.084;2023-04-28T07:06:18;5.85;;;2.75;;
77513;SDS011;66626;48.872;9.084;2023-04-28T07:08:44;5.85;;;3.25;;
77513;SDS011;66626;48.872;9.084;2023-04-28T07:11:09;7.03;;;3.38;;
77513;SDS011;66626;48.872;9.084;2023-04-28T07:13:34;8.48;;;3.35;;
77513;SDS011;66626;48.872;9.084;2023-04-28T07:16:00;5.85;;;3.22;;
77513;SDS011;66626;48.872;9.084;2023-04-28T07:18:25;7.63;;;3.38;;
77513;SDS011;66626;48.872;9.084;2023-04-28T07:20:51;7.57;;;3.75;;
77513;SDS011;66626;48.872;9.084;2023-04-28T07:23:16;7.50;;;3.78;;
77513;SDS011;66626;48.872;9.084;2023-04-28T07:25:42;6.05;;;3.30;;
77513;SDS011;66626;48.872;9.084;2023-04-28T07:28:08;16.58;;;7.40;;
77513;SDS011;66626;48.872;9.084;2023-04-28T07:30:33;8.85;;;4.20;;
77513;SDS011;66626;48.872;9.084;2023-04-28T07:32:59;8.18;;;4.32;;
77513;SDS011;66626;48.872;9.084;2023-04-28T07:35:25;5.78;;;2.72;;
77513;SDS011;66626;48.872;9.084;2023-04-28T07:37:50;7.30;;;4.32;;
77513;SDS011;66626;48.872;9.084;2023-04-28T07:40:16;5.57;;;3.47;;
77513;SDS011;66626;48.872;9.084;2023-04-28T07:42:41;7.53;;;3.72;;
77513;SDS011;66626;48.872;9.084;2023-04-28T07:45:07;9.40;;;4.25;;
77513;SDS011;66626;48.872;9.084;2023-04-28T07:47:32;10.85;;;5.95;;
77513;SDS011;66626;48.872;9.084;2023-04-28T07:49:58;11.00;;;6.15;;
77513;SDS011;66626;48.872;9.084;2023-04-28T07:52:27;9.27;;;5.00;;
77513;SDS011;66626;48.872;9.084;2023-04-28T07:54:52;8.20;;;4.63;;
77513;SDS011;66626;48.872;9.084;2023-04-28T07:57:18;9.00;;;4.40;;
77513;SDS011;66626;48.872;9.084;2023-04-28T07:59:43;7.70;;;4.32;;
77513;SDS011;66626;48.872;9.084;2023-04-28T08:02:08;7.85;;;4.72;;
77513;SDS011;66626;48.872;9.084;2023-04-28T08:04:37;9.85;;;6.00;;
77513;SDS011;66626;48.872;9.084;2023-04-28T08:07:02;15.73;;;8.57;;
77513;SDS011;66626;48.872;9.084;2023-04-28T08:09:28;9.65;;;5.15;;
77513;SDS011;66626;48.872;9.084;2023-04-28T08:11:53;12.15;;;5.72;;
77513;SDS011;66626;48.872;9.084;2023-04-28T08:14:19;10.45;;;4.93;;
77513;SDS011;66626;48.872;9.084;2023-04-28T08:16:44;8.60;;;5.63;;
77513;SDS011;66626;48.872;9.084;2023-04-28T08:19:10;11.02;;;7.05;;
77513;SDS011;66626;48.872;9.084;2023-04-28T08:21:36;15.65;;;8.23;;
77513;SDS011;66626;48.872;9.084;2023-04-28T08:24:01;12.73;;;6.50;;
77513;SDS011;66626;48.872;9.084;2023-04-28T08:26:26;12.25;;;7.22;;
77513;SDS011;66626;48.872;9.084;2023-04-28T08:28:55;21.67;;;12.73;;
77513;SDS011;66626;48.872;9.084;2023-04-28T08:31:20;10.27;;;6.22;;
77513;SDS011;66626;48.872;9.084;2023-04-28T08:33:45;11.00;;;4.90;;
77513;SDS011;66626;48.872;9.084;2023-04-28T08:36:14;8.98;;;5.90;;
77513;SDS011;66626;48.872;9.084;2023-04-28T08:38:39;11.93;;;5.95;;
77513;SDS011;66626;48.872;9.084;2023-04-28T08:41:06;12.32;;;6.78;;
77513;SDS011;66626;48.872;9.084;2023-04-28T08:43:32;10.35;;;6.47;;
77513;SDS011;66626;48.872;9.084;2023-04-28T08:46:04;11.98;;;6.18;;
77513;SDS011;66626;48.872;9.084;2023-04-28T08:48:33;10.73;;;6.35;;
77513;SDS011;66626;48.872;9.084;2023-04-28T08:51:03;11.27;;;5.55;;
77513;SDS011;66626;48.872;9.084;2023-04-28T08:53:30;9.45;;;5.68;;
77513;SDS011;66626;48.872;9.084;2023-04-28T08:55:57;8.93;;;4.38;;
77513;SDS011;66626;48.872;9.084;2023-04-28T08:58:22;9.13;;;4.80;;
77513;SDS011;66626;48.872;9.084;2023-04-28T09:00:51;7.97;;;3.75;;
77513;SDS011;66626;48.872;9.084;2023-04-28T09:03:17;7.30;;;4.10;;
77513;SDS011;66626;48.872;9.084;2023-04-28T09:05:43;5.68;;;3.40;;
77513;SDS011;66626;48.872;9.084;2023-04-28T09:08:08;6.15;;;3.05;;
77513;SDS011;66626;48.872;9.084;2023-04-28T09:10:35;5.95;;;3.17;;
77513;SDS011;66626;48.872;9.084;2023-04-28T09:13:02;12.27;;;7.70;;
77513;SDS011;66626;48.872;9.084;2023-04-28T09:15:28;7.95;;;3.38;;
77513;SDS011;66626;48.872;9.084;2023-04-28T09:17:56;6.68;;;3.53;;
77513;SDS011;66626;48.872;9.084;2023-04-28T09:20:22;7.35;;;4.38;;
77513;SDS011;66626;48.872;9.084;2023-04-28T09:22:49;8.70;;;4.32;;
77513;SDS011;66626;48.872;9.084;2023-04-28T09:25:15;6.35;;;4.07;;
77513;SDS011;66626;48.872;9.084;2023-04-28T09:27:41;6.65;;;3.28;;
77513;SDS011;66626;48.872;9.084;2023-04-28T09:30:06;13.90;;;7.07;;
77513;SDS011;66626;48.872;9.084;2023-04-28T09:32:33;9.35;;;5.10;;
77513;SDS011;66626;48.872;9.084;2023-04-28T09:35:00;10.45;;;5.57;;
77513;SDS011;66626;48.872;9.084;2023-04-28T09:37:26;8.20;;;3.03;;
77513;SDS011;66626;48.872;9.084;2023-04-28T09:39:56;6.10;;;3.20;;
77513;SDS011;66626;48.872;9.084;2023-04-28T09:42:36;8.52;;;3.85;;
77513;SDS011;66626;48.872;9.084;2023-04-28T09:45:12;6.22;;;3.40;;
77513;SDS011;66626;48.872;9.084;2023-04-28T09:47:39;9.20;;;4.00;;
77513;SDS011;66626;48.872;9.084;2023-04-28T09:50:07;10.18;;;4.38;;
77513;SDS011;66626;48.872;9.084;2023-04-28T09:52:35;8.35;;;4.43;;
77513;SDS011;66626;48.872;9.084;2023-04-28T09:55:02;5.75;;;2.83;;
77513;SDS011;66626;48.872;9.084;2023-04-28T09:57:29;5.97;;;2.80;;
77513;SDS011;66626;48.872;9.084;2023-04-28T09:59:58;4.85;;;2.47;;
77513;SDS011;66626;48.872;9.084;2023-04-28T10:02:24;5.78;;;2.63;;
77513;SDS011;66626;48.872;9.084;2023-04-28T10:04:50;5.38;;;2.70;;
77513;SDS011;66626;48.872;9.084;2023-04-28T10:07:16;5.25;;;2.85;;
77513;SDS011;66626;48.872;9.084;2023-04-28T10:09:43;5.03;;;2.50;;
77513;SDS011;66626;48.872;9.084;2023-04-28T10:12:21;16.05;;;8.85;;
77513;SDS011;66626;48.872;9.084;2023-04-28T10:14:48;8.85;;;3.88;;
77513;SDS011;66626;48.872;9.084;2023-04-28T10:17:15;8.25;;;3.58;;
77513;SDS011;66626;48.872;9.084;2023-04-28T10:19:41;6.30;;;3.22;;
77513;SDS011;66626;48.872;9.084;2023-04-28T10:25:02;4.70;;;2.30;;
77513;SDS011;66626;48.872;9.084;2023-04-28T10:27:43;4.00;;;1.80;;
77513;SDS011;66626;48.872;9.084;2023-04-28T10:30:19;4.63;;;2.10;;
77513;SDS011;66626;48.872;9.084;2023-04-28T10:35:47;2.35;;;1.00;;
77513;SDS011;66626;48.872;9.084;2023-04-28T10:38:16;2.22;;;0.93;;
77513;SDS011;66626;48.872;9.084;2023-04-28T10:40:42;2.63;;;0.90;;
77513;SDS011;66626;48.872;9.084;2023-04-28T10:43:09;3.13;;;1.20;;
77513;SDS011;66626;48.872;9.084;2023-04-28T10:48:13;3.35;;;0.90;;
77513;SDS011;66626;48.872;9.084;2023-04-28T10:51:02;2.10;;;0.80;;
77513;SDS011;66626;48.872;9.084;2023-04-28T10:56:18;2.80;;;1.20;;
77513;SDS011;66626;48.872;9.084;2023-04-28T10:58:44;2.95;;;1.20;;
77513;SDS011;66626;48.872;9.084;2023-04-28T11:03:58;1.50;;;0.70;;
77513;SDS011;66626;48.872;9.084;2023-04-28T11:06:36;4.15;;;0.90;;
77513;SDS011;66626;48.872;9.084;2023-04-28T11:16:50;3.08;;;1.20;;
77513;SDS011;66626;48.872;9.084;2023-04-28T11:19:20;1.58;;;0.70;;
77513;SDS011;66626;48.872;9.084;2023-04-28T11:21:47;2.90;;;0.93;;
77513;SDS011;66626;48.872;9.084;2023-04-28T11:24:12;1.92;;;0.80;;
77513;SDS011;66626;48.872;9.084;2023-04-28T11:26:38;3.00;;;0.90;;
77513;SDS011;66626;48.872;9.084;2023-04-28T11:29:04;2.25;;;0.95;;
77513;SDS011;66626;48.872;9.084;2023-04-28T11:31:29;2.95;;;1.00;;
77513;SDS011;66626;48.872;9.084;2023-04-28T11:33:57;2.35;;;0.90;;
77513;SDS011;66626;48.872;9.084;2023-04-28T11:36:27;4.47;;;1.30;;
77513;SDS011;66626;48.872;9.084;2023-04-28T11:38:55;3.83;;;1.00;;
77513;SDS011;66626;48.872;9.084;2023-04-28T11:41:21;3.90;;;1.30;;
77513;SDS011;66626;48.872;9.084;2023-04-28T11:43:47;3.13;;;1.23;;
77513;SDS011;66626;48.872;9.084;2023-04-28T11:46:15;2.55;;;1.10;;
77513;SDS011;66626;48.872;9.084;2023-04-28T11:48:45;1.48;;;0.82;;
77513;SDS011;66626;48.872;9.084;2023-04-28T11:51:26;2.22;;;1.00;;
77513;SDS011;66626;48.872;9.084;2023-04-28T11:53:56;3.15;;;1.10;;
77513;SDS011;66626;48.872;9.084;2023-04-28T11:56:21;2.60;;;1.05;;
77513;SDS011;66626;48.872;9.084;2023-04-28T11:58:58;2.50;;;1.00;;
77513;SDS011;66626;48.872;9.084;2023-04-28T12:01:28;3.08;;;0.98;;
77513;SDS011;66626;48.872;9.084;2023-04-28T12:03:54;4.65;;;1.17;;
77513;SDS011;66626;48.872;9.084;2023-04-28T12:06:19;3.45;;;1.20;;
77513;SDS011;66626;48.872;9.084;2023-04-28T12:08:45;3.83;;;1.10;;
77513;SDS011;66626;48.872;9.084;2023-04-28T12:11:11;3.53;;;1.27;;
77513;SDS011;66626;48.872;9.084;2023-04-28T12:13:37;5.63;;;1.67;;
77513;SDS011;66626;48.872;9.084;2023-04-28T12:16:03;5.80;;;2.17;;
77513;SDS011;66626;48.872;9.084;2023-04-28T12:18:32;6.68;;;2.08;;
77513;SDS011;66626;48.872;9.084;2023-04-28T12:20:58;4.03;;;1.50;;
77513;SDS011;66626;48.872;9.084;2023-04-28T12:23:34;4.03;;;1.73;;
77513;SDS011;66626;48.872;9.084;2023-04-28T12:26:00;3.50;;;1.42;;
77513;SDS011;66626;48.872;9.084;2023-04-28T12:28:35;4.32;;;1.92;;
77513;SDS011;66626;48.872;9.084;2023-04-28T12:31:05;3.90;;;1.83;;
77513;SDS011;66626;48.872;9.084;2023-04-28T12:33:33;5.80;;;2.17;;
77513;SDS011;66626;48.872;9.084;2023-04-28T12:36:01;3.67;;;1.50;;
77513;SDS011;66626;48.872;9.084;2023-04-28T12:38:28;2.65;;;1.10;;
77513;SDS011;66626;48.872;9.084;2023-04-28T12:40:54;3.00;;;1.38;;
77513;SDS011;66626;48.872;9.084;2023-04-28T12:43:20;4.20;;;1.55;;
77513;SDS011;66626;48.872;9.084;2023-04-28T12:45:50;3.22;;;1.33;;
77513;SDS011;66626;48.872;9.084;2023-04-28T12:48:16;3.40;;;1.33;;
77513;SDS011;66626;48.872;9.084;2023-04-28T12:50:42;3.83;;;1.55;;
77513;SDS011;66626;48.872;9.084;2023-04-28T12:53:07;3.35;;;1.38;;
77513;SDS011;66626;48.872;9.084;2023-04-28T12:55:33;4.57;;;1.35;;
77513;SDS011;66626;48.872;9.084;2023-04-28T12:57:58;3.05;;;1.40;;
77513;SDS011;66626;48.872;9.084;2023-04-28T13:00:23;3.20;;;1.30;;
77513;SDS011;66626;48.872;9.084;2023-04-28T13:02:49;3.30;;;1.27;;
77513;SDS011;66626;48.872;9.084;2023-04-28T13:05:15;2.97;;;1.23;;
77513;SDS011;66626;48.872;9.084;2023-04-28T13:07:40;5.13;;;2.60;;
77513;SDS011;66626;48.872;9.084;2023-04-28T13:10:06;5.68;;;2.60;;
77513;SDS011;66626;48.872;9.084;2023-04-28T13:12:32;5.45;;;2.55;;
77513;SDS011;66626;48.872;9.084;2023-04-28T13:14:58;8.07;;;2.22;;
77513;SDS011;66626;48.872;9.084;2023-04-28T13:17:25;4.25;;;1.42;;
77513;SDS011;66626;48.872;9.084;2023-04-28T13:19:51;4.30;;;2.00;;
77513;SDS011;66626;48.872;9.084;2023-04-28T13:22:16;4.00;;;1.42;;
77513;SDS011;66626;48.872;9.084;2023-04-28T13:24:42;5.78;;;3.20;;
77513;SDS011;66626;48.872;9.084;2023-04-28T13:27:07;5.60;;;2.80;;
77513;SDS011;66626;48.872;9.084;2023-04-28T13:29:33;4.07;;;1.63;;
77513;SDS011;66626;48.872;9.084;2023-04-28T13:32:00;4.15;;;1.40;;
77513;SDS011;66626;48.872;9.084;2023-04-28T13:34:25;3.92;;;1.50;;
77513;SDS011;66626;48.872;9.084;2023-04-28T13:36:50;4.53;;;1.38;;
77513;SDS011;66626;48.872;9.084;2023-04-28T13:39:17;3.25;;;1.40;;
77513;SDS011;66626;48.872;9.084;2023-04-28T13:41:44;3.00;;;1.23;;
77513;SDS011;66626;48.872;9.084;2023-04-28T13:44:09;4.43;;;1.42;;
77513;SDS011;66626;48.872;9.084;2023-04-28T13:46:35;3.50;;;1.38;;
77513;SDS011;66626;48.872;9.084;2023-04-28T13:49:00;3.83;;;1.70;;
77513;SDS011;66626;48.872;9.084;2023-04-28T13:51:26;5.03;;;2.00;;
77513;SDS011;66626;48.872;9.084;2023-04-28T13:53:52;5.07;;;1.70;;
77513;SDS011;66626;48.872;9.084;2023-04-28T13:56:18;3.60;;;1.50;;
77513;SDS011;66626;48.872;9.084;2023-04-28T13:58:43;4.25;;;1.60;;
77513;SDS011;66626;48.872;9.084;2023-04-28T14:01:09;4.22;;;1.40;;
77513;SDS011;66626;48.872;9.084;2023-04-28T14:03:34;3.30;;;1.30;;
77513;SDS011;66626;48.872;9.084;2023-04-28T14:06:00;2.92;;;1.25;;
77513;SDS011;66626;48.872;9.084;2023-04-28T14:08:25;4.68;;;1.70;;
77513;SDS011;66626;48.872;9.084;2023-04-28T14:10:51;4.30;;;1.50;;
77513;SDS011;66626;48.872;9.084;2023-04-28T14:13:17;4.43;;;1.63;;
77513;SDS011;66626;48.872;9.084;2023-04-28T14:15:43;4.75;;;1.67;;
77513;SDS011;66626;48.872;9.084;2023-04-28T14:18:09;4.25;;;1.60;;
77513;SDS011;66626;48.872;9.084;2023-04-28T14:20:34;8.45;;;4.78;;
77513;SDS011;66626;48.872;9.084;2023-04-28T14:23:00;7.03;;;3.47;;
77513;SDS011;66626;48.872;9.084;2023-04-28T14:25:25;4.35;;;2.15;;
77513;SDS011;66626;48.872;9.084;2023-04-28T14:27:51;5.00;;;1.90;;
77513;SDS011;66626;48.872;9.084;2023-04-28T14:30:17;4.78;;;2.30;;
77513;SDS011;66626;48.872;9.084;2023-04-28T14:32:43;5.68;;;2.38;;
77513;SDS011;66626;48.872;9.084;2023-04-28T14:35:09;4.15;;;1.95;;
77513;SDS011;66626;48.872;9.084;2023-04-28T14:37:35;4.50;;;2.10;;
77513;SDS011;66626;48.872;9.084;2023-04-28T14:40:00;3.63;;;1.73;;
77513;SDS011;66626;48.872;9.084;2023-04-28T14:42:28;6.00;;;1.98;;
77513;SDS011;66626;48.872;9.084;2023-04-28T14:44:57;5.63;;;1.50;;
77513;SDS011;66626;48.872;9.084;2023-04-28T14:47:23;3.63;;;1.50;;
77513;SDS011;66626;48.872;9.084;2023-04-28T14:49:49;2.88;;;1.10;;
77513;SDS011;66626;48.872;9.084;2023-04-28T14:52:17;3.00;;;1.10;;
77513;SDS011;66626;48.872;9.084;2023-04-28T14:54:42;3.53;;;1.65;;
77513;SDS011;66626;48.872;9.084;2023-04-28T14:57:08;9.23;;;1.70;;
77513;SDS011;66626;48.872;9.084;2023-04-28T14:59:34;3.40;;;1.27;;
77513;SDS011;66626;48.872;9.084;2023-04-28T15:01:59;2.60;;;1.13;;